Time;durP1;ratioP1;P1;durP2;ratioP2;P2;SDS_P1;SDS_P2;PMS_P1;PMS_P2;Temp;Humidity;BMP_temperature;BMP_pressure;BME280_temperature;BME280_humidity;BME280_pressure;Samples;Min_cycle;Max_cycle;Signal;HPM_P1;HPM_P2
2021/08/15 00:00:14;;;;;;;7.18;3.50;;;;;;;16.93;85.66;101898.19;4976256;28;20070;-70
2021/08/15 00:02:42;;;;;;;8.07;3.47;;;;;;;16.93;84.71;101898.19;4978769;28;20146;-70
2021/08/15 00:05:12;;;;;;;10.25;3.60;;;;;;;16.95;85.54;101885.50;4979131;28;20070;-70
2021/08/15 00:07:41;;;;;;;9.35;3.58;;;;;;;16.89;84.70;101878.56;4980705;28;20046;-70
2021/08/15 00:10:10;;;;;;;7.18;3.33;;;;;;;16.85;84.67;101867.97;4979295;28;20047;-76
2021/08/15 00:12:40;;;;;;;7.47;3.42;;;;;;;16.79;84.85;101863.69;4978709;28;20073;-71
2021/08/15 00:15:10;;;;;;;9.25;3.58;;;;;;;16.75;85.44;101860.25;4980521;28;20094;-70
2021/08/15 00:17:39;;;;;;;8.77;3.38;;;;;;;16.71;84.93;101860.44;4983818;28;20043;-70
2021/08/15 00:20:08;;;;;;;8.35;3.05;;;;;;;16.69;85.43;101855.09;4981489;28;20085;-70
2021/08/15 00:22:38;;;;;;;9.00;3.40;;;;;;;16.70;85.69;101864.06;4986310;28;20358;-70
2021/08/15 00:25:09;;;;;;;9.25;3.83;;;;;;;16.63;85.20;101863.44;4981748;28;20134;-71
2021/08/15 00:27:37;;;;;;;10.07;3.30;;;;;;;16.60;85.10;101874.34;4981657;28;20318;-70
2021/08/15 00:30:06;;;;;;;7.85;3.95;;;;;;;16.55;86.06;101860.16;4982427;28;20524;-70
2021/08/15 00:32:34;;;;;;;7.30;3.30;;;;;;;16.55;85.54;101869.16;4979894;28;20113;-70
2021/08/15 00:35:02;;;;;;;7.00;3.60;;;;;;;16.50;85.07;101862.19;4983543;28;20655;-71
2021/08/15 00:37:30;;;;;;;8.60;3.53;;;;;;;16.47;85.50;101857.81;4982132;28;20302;-70
2021/08/15 00:39:58;;;;;;;8.70;3.50;;;;;;;16.37;85.93;101846.53;4984444;28;20117;-70
2021/08/15 00:42:27;;;;;;;10.10;3.70;;;;;;;16.37;86.84;101846.53;4980382;28;20062;-70
2021/08/15 00:44:56;;;;;;;8.25;3.38;;;;;;;16.36;86.66;101843.88;4982054;28;20069;-70
2021/08/15 00:47:23;;;;;;;6.72;3.13;;;;;;;16.33;86.95;101852.09;4978967;28;20062;-70
2021/08/15 00:49:51;;;;;;;9.20;3.75;;;;;;;16.30;86.80;101853.09;4981548;28;20065;-70
2021/08/15 00:52:19;;;;;;;8.38;3.60;;;;;;;16.27;86.94;101850.53;4984615;28;20098;-70
2021/08/15 00:54:47;;;;;;;8.30;3.65;;;;;;;16.22;87.17;101847.13;4981574;28;20093;-70
2021/08/15 00:57:14;;;;;;;9.27;3.60;;;;;;;16.19;87.29;101858.03;4979797;28;20178;-70
2021/08/15 00:59:44;;;;;;;8.98;3.22;;;;;;;16.14;88.10;101855.53;4979992;28;20117;-70
2021/08/15 01:02:12;;;;;;;6.32;3.22;;;;;;;16.13;88.55;101843.00;4981913;28;20120;-70
2021/08/15 01:04:41;;;;;;;9.15;4.00;;;;;;;16.11;87.70;101847.56;4982094;28;20062;-72
2021/08/15 01:07:08;;;;;;;10.35;3.75;;;;;;;16.11;87.55;101844.88;4981617;28;20066;-71
2021/08/15 01:09:40;;;;;;;7.30;3.33;;;;;;;16.10;87.63;101840.41;4983069;28;20070;-71
2021/08/15 01:12:08;;;;;;;10.40;3.60;;;;;;;16.09;87.13;101836.00;4982320;28;20422;-70
2021/08/15 01:14:39;;;;;;;9.75;3.53;;;;;;;16.09;87.25;101819.84;4981529;28;20062;-71
2021/08/15 01:17:08;;;;;;;8.18;3.60;;;;;;;16.13;88.95;101823.28;4980700;28;20069;-70
2021/08/15 01:19:36;;;;;;;12.32;4.03;;;;;;;16.16;89.85;101810.56;4981974;28;20050;-70
2021/08/15 01:22:04;;;;;;;8.93;3.80;;;;;;;16.20;89.50;101806.81;4982788;28;20078;-70
2021/08/15 01:24:32;;;;;;;8.68;3.58;;;;;;;16.20;89.91;101811.31;4981827;28;20090;-71
2021/08/15 01:27:20;;;;;;;9.18;4.28;;;;;;;16.19;88.94;101813.16;4979429;28;20086;-70
2021/08/15 01:29:50;;;;;;;9.02;3.53;;;;;;;16.14;89.45;101809.75;4981451;28;20345;-70
2021/08/15 01:32:20;;;;;;;9.85;3.97;;;;;;;16.12;89.59;101808.06;4981816;28;20062;-70
2021/08/15 01:34:48;;;;;;;7.35;3.60;;;;;;;16.10;89.11;101808.13;4978791;28;20334;-72
2021/08/15 01:37:16;;;;;;;11.25;3.75;;;;;;;16.09;89.49;101800.09;4981056;28;20113;-71
2021/08/15 01:39:44;;;;;;;11.00;3.83;;;;;;;16.07;89.38;101802.84;4981542;28;20071;-70
2021/08/15 01:42:11;;;;;;;9.23;3.90;;;;;;;16.05;90.21;101794.84;4977785;28;20323;-70
2021/08/15 01:44:39;;;;;;;8.38;3.60;;;;;;;16.06;90.52;101803.81;4982760;28;20065;-70
2021/08/15 01:47:10;;;;;;;7.35;3.70;;;;;;;16.03;89.80;101799.41;4978956;28;20067;-71
2021/08/15 01:49:37;;;;;;;7.40;3.70;;;;;;;16.03;89.95;101795.84;4981639;28;20126;-72
2021/08/15 01:52:05;;;;;;;10.57;4.35;;;;;;;16.01;90.34;101798.59;4978525;28;20441;-72
2021/08/15 01:54:33;;;;;;;9.45;3.80;;;;;;;16.02;91.00;101805.75;4981104;28;20158;-72
2021/08/15 01:57:01;;;;;;;10.65;4.65;;;;;;;15.98;90.56;101806.78;4981060;28;20389;-71
2021/08/15 01:59:29;;;;;;;11.60;4.22;;;;;;;15.98;90.74;101805.91;4981108;28;20072;-71
2021/08/15 02:01:59;;;;;;;11.40;4.07;;;;;;;15.95;89.68;101785.38;4980887;28;20181;-72
2021/08/15 02:04:28;;;;;;;9.10;4.05;;;;;;;15.99;90.51;101778.94;4982271;28;20042;-72
2021/08/15 02:06:56;;;;;;;9.23;4.00;;;;;;;16.01;90.95;101773.50;4978744;28;20396;-71
2021/08/15 02:09:24;;;;;;;11.43;4.07;;;;;;;15.98;90.90;101777.19;4980220;28;20098;-72
2021/08/15 02:11:52;;;;;;;11.02;4.00;;;;;;;15.94;90.74;101772.88;4982004;28;20442;-72
2021/08/15 02:14:20;;;;;;;7.88;3.95;;;;;;;15.92;91.05;101763.97;4981204;28;20069;-72
2021/08/15 02:16:48;;;;;;;7.70;3.67;;;;;;;15.92;91.41;101769.38;4980717;28;20145;-72
2021/08/15 02:19:15;;;;;;;9.07;3.97;;;;;;;15.96;91.68;101767.44;4980038;28;20051;-72
2021/08/15 02:21:45;;;;;;;8.55;3.83;;;;;;;15.98;92.33;101760.16;4981629;28;20129;-72
2021/08/15 02:24:13;;;;;;;9.70;3.97;;;;;;;15.96;92.60;101753.97;4978586;28;20097;-70
2021/08/15 02:26:40;;;;;;;8.80;3.90;;;;;;;15.97;92.76;101761.09;4980066;28;20126;-70
2021/08/15 02:29:08;;;;;;;8.65;3.92;;;;;;;15.97;92.47;101750.31;4980605;28;20097;-72
2021/08/15 02:31:36;;;;;;;8.90;4.07;;;;;;;15.91;91.95;101743.38;4980468;28;20235;-70
2021/08/15 02:34:04;;;;;;;10.65;4.07;;;;;;;15.86;93.00;101738.16;4980654;28;20452;-70
2021/08/15 02:36:32;;;;;;;11.43;4.13;;;;;;;15.86;92.98;101722.03;4981383;28;20063;-70
2021/08/15 02:39:02;;;;;;;7.20;4.32;;;;;;;15.85;91.56;101720.28;4978991;28;20094;-70
2021/08/15 02:41:29;;;;;;;8.57;3.25;;;;;;;15.84;91.80;101726.59;4981988;28;20106;-70
2021/08/15 02:43:57;;;;;;;9.82;3.80;;;;;;;15.86;93.08;101731.91;4981735;28;20077;-70
2021/08/15 02:46:25;;;;;;;9.73;4.18;;;;;;;15.83;92.41;101714.09;4979899;28;20042;-70
2021/08/15 02:48:52;;;;;;;12.25;4.80;;;;;;;15.82;92.36;101736.56;4979782;28;20066;-70
2021/08/15 02:51:20;;;;;;;9.43;3.85;;;;;;;15.81;92.19;101707.00;4981930;28;20155;-70
2021/08/15 02:53:48;;;;;;;10.00;4.43;;;;;;;15.82;92.67;101719.53;4980003;28;20124;-70
2021/08/15 02:56:17;;;;;;;10.40;4.25;;;;;;;15.80;92.29;101726.78;4980345;28;20144;-70
2021/08/15 02:58:45;;;;;;;8.70;3.97;;;;;;;15.81;93.14;101723.16;4979950;28;20074;-71
2021/08/15 03:01:12;;;;;;;11.20;4.60;;;;;;;15.79;92.65;101735.81;4981225;28;20160;-71
2021/08/15 03:03:40;;;;;;;12.40;5.25;;;;;;;15.79;92.64;101742.06;4977154;28;20066;-71
2021/08/15 03:06:08;;;;;;;12.27;4.63;;;;;;;15.80;92.54;101746.50;4980138;28;20168;-71
2021/08/15 03:08:36;;;;;;;11.10;4.10;;;;;;;15.80;92.39;101742.91;4981159;28;20058;-71
2021/08/15 03:11:04;;;;;;;11.18;5.35;;;;;;;15.80;92.18;101743.81;4980678;28;20073;-71
2021/08/15 03:13:33;;;;;;;11.48;4.38;;;;;;;15.78;91.97;101740.31;4980171;28;20062;-71
2021/08/15 03:16:01;;;;;;;12.80;5.35;;;;;;;15.79;91.60;101733.97;4978966;28;20411;-70
2021/08/15 03:18:28;;;;;;;12.30;5.07;;;;;;;15.81;91.77;101731.22;4979162;28;20074;-71
2021/08/15 03:20:56;;;;;;;10.15;4.18;;;;;;;15.83;91.74;101714.09;4980372;28;20058;-70
2021/08/15 03:23:24;;;;;;;9.05;4.05;;;;;;;15.85;91.63;101731.06;4979198;28;20050;-70
2021/08/15 03:25:51;;;;;;;11.18;4.70;;;;;;;15.89;91.63;101729.13;4979339;28;20070;-71
2021/08/15 03:28:19;;;;;;;13.25;5.28;;;;;;;15.92;90.93;101720.03;4979018;28;20062;-71
2021/08/15 03:30:48;;;;;;;12.55;4.60;;;;;;;15.92;90.94;101723.63;4981402;28;20323;-71
2021/08/15 03:33:16;;;;;;;14.40;4.93;;;;;;;15.96;90.72;101722.53;4977833;28;20687;-71
2021/08/15 03:35:43;;;;;;;12.30;4.38;;;;;;;15.99;90.40;101719.72;4980848;28;20443;-72
2021/08/15 03:38:11;;;;;;;12.10;4.30;;;;;;;16.00;90.44;101713.38;4978619;28;20377;-71
2021/08/15 03:40:39;;;;;;;10.90;4.75;;;;;;;15.99;90.39;101705.41;4980294;28;20120;-72
2021/08/15 03:43:06;;;;;;;12.32;4.63;;;;;;;16.01;90.73;101707.06;4978356;28;20062;-70
2021/08/15 03:45:38;;;;;;;14.88;5.20;;;;;;;15.99;90.21;101705.41;4979254;28;20153;-77
2021/08/15 03:48:07;;;;;;;16.27;5.25;;;;;;;16.00;90.88;101705.31;4978583;28;20070;-77
2021/08/15 03:50:35;;;;;;;13.95;4.78;;;;;;;16.00;91.19;101709.81;4981298;28;20098;-76
2021/08/15 03:53:03;;;;;;;13.85;5.15;;;;;;;16.00;91.21;101691.84;4980700;28;20128;-77
2021/08/15 03:55:31;;;;;;;14.65;5.60;;;;;;;16.04;91.77;101693.50;4981271;28;20062;-77
2021/08/15 03:57:58;;;;;;;13.27;5.22;;;;;;;16.02;91.30;101698.06;4984680;28;20070;-77
2021/08/15 04:00:26;;;;;;;16.13;5.28;;;;;;;16.05;91.41;101700.63;4981176;28;20042;-77
2021/08/15 04:02:54;;;;;;;12.40;5.53;;;;;;;16.06;91.71;101698.81;4983101;28;20273;-77
2021/08/15 04:05:23;;;;;;;18.73;5.70;;;;;;;16.05;91.60;101689.84;4981656;28;20153;-77
2021/08/15 04:07:51;;;;;;;16.10;5.90;;;;;;;16.05;91.77;101687.16;4983002;28;20112;-80
2021/08/15 04:10:20;;;;;;;16.92;5.55;;;;;;;16.06;92.10;101693.44;4982472;28;20066;-76
2021/08/15 04:12:47;;;;;;;14.85;5.68;;;;;;;16.02;91.80;101681.94;4982773;28;20066;-76
2021/08/15 04:15:15;;;;;;;12.18;6.28;;;;;;;16.03;92.32;101685.47;4982195;28;20205;-77
2021/08/15 04:17:43;;;;;;;14.35;5.60;;;;;;;16.01;91.99;101688.22;4986684;28;20162;-77
2021/08/15 04:20:12;;;;;;;11.20;5.63;;;;;;;15.98;92.49;101682.09;4981612;28;20065;-77
2021/08/15 04:22:41;;;;;;;16.23;5.78;;;;;;;15.95;92.63;101675.03;4983247;28;20058;-71
2021/08/15 04:25:10;;;;;;;13.73;5.70;;;;;;;15.96;92.44;101673.22;4981687;28;20461;-70
2021/08/15 04:27:38;;;;;;;17.00;6.53;;;;;;;15.99;93.51;101673.97;4981108;28;20317;-71
2021/08/15 04:30:08;;;;;;;14.60;6.50;;;;;;;16.00;93.96;101664.06;4982876;28;20073;-71
2021/08/15 04:32:36;;;;;;;17.95;6.10;;;;;;;15.97;93.58;101658.81;4982246;28;20062;-71
2021/08/15 04:35:06;;;;;;;15.80;6.20;;;;;;;15.99;94.17;101663.22;4982124;28;20062;-71
2021/08/15 04:37:33;;;;;;;20.40;6.60;;;;;;;15.98;93.85;101660.56;4983531;28;20363;-70
2021/08/15 04:40:03;;;;;;;21.42;7.55;;;;;;;15.98;94.42;101666.81;4981899;28;20668;-71
2021/08/15 04:42:31;;;;;;;16.15;6.18;;;;;;;16.00;94.52;101658.69;4980482;28;20132;-71
2021/08/15 04:44:58;;;;;;;20.27;7.18;;;;;;;16.03;94.71;101661.25;4981020;28;20070;-71
2021/08/15 04:47:26;;;;;;;21.52;6.78;;;;;;;16.08;95.18;101655.69;4982155;28;20066;-71
2021/08/15 04:49:54;;;;;;;14.68;6.60;;;;;;;16.10;95.11;101649.28;4981310;28;20073;-71
2021/08/15 04:52:22;;;;;;;17.60;7.40;;;;;;;16.12;94.61;101649.22;4982664;28;20132;-70
2021/08/15 04:54:50;;;;;;;16.13;6.40;;;;;;;16.17;95.11;101645.38;4981513;28;20054;-70
2021/08/15 04:57:19;;;;;;;21.45;6.55;;;;;;;16.17;94.71;101650.75;4981049;28;20520;-72
2021/08/15 04:59:47;;;;;;;18.02;8.00;;;;;;;16.19;94.87;101648.00;4983434;28;20062;-70
2021/08/15 05:02:14;;;;;;;16.23;8.07;;;;;;;16.21;95.37;101640.78;4979285;28;20062;-70
2021/08/15 05:04:42;;;;;;;15.82;7.28;;;;;;;16.27;95.06;101650.38;4979193;28;20436;-71
2021/08/15 05:07:10;;;;;;;16.17;6.78;;;;;;;16.33;95.36;101650.09;4984383;28;20113;-72
2021/08/15 05:09:38;;;;;;;17.95;7.47;;;;;;;16.33;94.91;101650.09;4981407;28;20066;-77
2021/08/15 05:12:06;;;;;;;16.15;5.93;;;;;;;16.37;94.97;101649.03;4983248;28;20074;-77
2021/08/15 05:14:35;;;;;;;16.33;7.03;;;;;;;16.39;94.85;101648.03;4982678;28;20069;-77
2021/08/15 05:17:05;;;;;;;19.65;7.10;;;;;;;16.40;94.57;101651.63;4980094;28;20153;-77
2021/08/15 05:19:33;;;;;;;15.25;5.65;;;;;;;16.41;94.52;101650.66;4980867;28;20070;-77
2021/08/15 05:22:01;;;;;;;22.20;10.00;;;;;;;16.45;94.46;101652.28;4980454;28;20065;-77
2021/08/15 05:24:29;;;;;;;13.00;6.50;;;;;;;16.51;94.61;101659.22;4982344;28;20319;-76
2021/08/15 05:26:57;;;;;;;14.43;6.60;;;;;;;16.56;94.79;101654.50;4979289;28;20066;-77
2021/08/15 05:29:24;;;;;;;19.42;7.03;;;;;;;16.59;94.44;101649.84;4981137;28;20133;-77
2021/08/15 05:31:53;;;;;;;20.02;6.20;;;;;;;16.65;94.31;101645.13;4980031;28;20093;-76
2021/08/15 05:34:21;;;;;;;17.65;7.78;;;;;;;16.68;93.93;101651.25;4981869;28;20133;-77
2021/08/15 05:36:49;;;;;;;19.73;6.55;;;;;;;16.72;94.03;101639.41;4982088;28;20066;-76
2021/08/15 05:39:17;;;;;;;16.65;6.60;;;;;;;16.76;93.87;101640.13;4981228;28;21160;-76
2021/08/15 05:41:44;;;;;;;14.85;5.85;;;;;;;16.81;93.71;101641.66;4981509;28;20129;-77
2021/08/15 05:44:12;;;;;;;18.58;6.97;;;;;;;16.86;93.60;101644.19;4980728;28;20073;-76
2021/08/15 05:46:40;;;;;;;18.92;6.70;;;;;;;16.90;93.66;101634.16;4982113;28;20098;-77
2021/08/15 05:49:09;;;;;;;15.65;6.47;;;;;;;16.94;93.49;101638.44;4981352;28;20074;-76
2021/08/15 05:51:37;;;;;;;15.10;5.60;;;;;;;17.00;93.31;101635.47;4981308;28;20124;-76
2021/08/15 05:54:04;;;;;;;16.00;6.22;;;;;;;17.02;93.32;101624.63;4980893;28;20077;-76
2021/08/15 05:56:33;;;;;;;14.90;6.40;;;;;;;17.05;93.59;101628.03;4980306;28;20057;-76
2021/08/15 05:59:01;;;;;;;16.48;6.20;;;;;;;17.07;93.32;101630.66;4979970;28;20066;-76
2021/08/15 06:01:31;;;;;;;14.25;6.32;;;;;;;17.12;93.13;101632.19;4980917;28;20050;-76
2021/08/15 06:03:59;;;;;;;15.57;6.07;;;;;;;17.16;92.85;101633.81;4981111;28;20188;-71
2021/08/15 06:06:28;;;;;;;15.35;6.22;;;;;;;17.20;92.72;101628.25;4981778;28;20070;-70
2021/08/15 06:08:55;;;;;;;16.48;7.13;;;;;;;17.27;92.34;101635.13;4979603;28;20362;-70
2021/08/15 06:11:23;;;;;;;19.13;6.68;;;;;;;17.38;91.85;101629.22;4979667;28;20125;-70
2021/08/15 06:13:51;;;;;;;19.55;6.50;;;;;;;17.45;91.65;101630.66;4979380;28;20385;-70
2021/08/15 06:16:19;;;;;;;15.93;6.80;;;;;;;17.64;91.30;101622.53;4979273;28;20066;-71
2021/08/15 06:18:47;;;;;;;17.77;6.30;;;;;;;17.63;90.94;101626.19;4978946;28;20071;-71
2021/08/15 06:21:15;;;;;;;20.42;6.63;;;;;;;17.65;90.92;101622.47;4980832;28;20066;-71
2021/08/15 06:23:46;;;;;;;16.73;6.50;;;;;;;17.67;90.64;101623.28;4980178;28;20046;-71
2021/08/15 06:26:14;;;;;;;18.10;6.15;;;;;;;17.59;90.80;101614.69;4978546;28;20073;-77
2021/08/15 06:28:41;;;;;;;19.52;7.00;;;;;;;17.67;90.83;101617.88;4976421;28;20090;-71
2021/08/15 06:31:22;;;;;;;18.73;7.28;;;;;;;17.72;90.23;101613.13;4978392;28;20077;-71
2021/08/15 06:33:50;;;;;;;21.98;6.95;;;;;;;18.37;88.64;101607.16;4978526;28;20068;-70
2021/08/15 06:36:18;;;;;;;15.73;6.38;;;;;;;19.13;85.26;101603.97;4981432;28;20324;-76
2021/08/15 06:38:47;;;;;;;19.38;7.28;;;;;;;18.75;85.03;101606.06;4980124;28;20520;-76
2021/08/15 06:41:15;;;;;;;22.35;7.45;;;;;;;18.62;85.92;101604.00;4986009;28;20066;-76
2021/08/15 06:43:43;;;;;;;20.13;7.20;;;;;;;18.49;86.38;101602.94;4976974;28;20414;-76
2021/08/15 06:46:12;;;;;;;18.63;7.60;;;;;;;18.49;87.10;101613.75;4979761;28;20160;-76
2021/08/15 06:48:41;;;;;;;18.05;6.93;;;;;;;18.44;86.28;101613.97;4981193;28;20063;-76
2021/08/15 06:51:08;;;;;;;18.30;6.95;;;;;;;18.53;86.05;101619.84;4978741;28;20113;-76
2021/08/15 06:53:38;;;;;;;14.65;6.38;;;;;;;18.55;86.30;101618.81;4979333;28;20124;-71
2021/08/15 06:56:08;;;;;;;16.80;6.70;;;;;;;18.68;86.00;101621.75;4980488;28;20152;-76
2021/08/15 06:58:37;;;;;;;16.25;6.10;;;;;;;19.43;84.10;101619.44;4979695;28;20446;-76
2021/08/15 07:01:05;;;;;;;16.10;7.85;;;;;;;19.92;81.58;101605.78;4977489;28;20101;-71
2021/08/15 07:03:46;;;;;;;18.58;7.30;;;;;;;20.52;79.87;101607.56;4979548;28;20262;-71
2021/08/15 07:06:13;;;;;;;19.10;6.57;;;;;;;20.83;78.22;101604.81;4978905;28;20488;-77
2021/08/15 07:08:41;;;;;;;22.15;7.35;;;;;;;20.88;77.41;101608.97;4980962;28;20089;-71
2021/08/15 07:11:10;;;;;;;18.50;7.60;;;;;;;20.62;76.62;101607.91;4979689;28;20544;-76
2021/08/15 07:13:38;;;;;;;19.05;8.27;;;;;;;21.29;75.23;101599.13;4981091;28;20070;-76
2021/08/15 07:16:06;;;;;;;19.85;8.10;;;;;;;21.34;73.74;101605.13;4982618;28;20493;-76
2021/08/15 07:18:34;;;;;;;21.52;7.80;;;;;;;21.38;73.66;101612.09;4979973;28;21721;-72
2021/08/15 07:21:02;;;;;;;19.77;8.00;;;;;;;21.65;72.05;101600.41;4978306;28;20375;-73
2021/08/15 07:23:30;;;;;;;15.48;6.72;;;;;;;21.97;72.12;101608.25;4980028;28;20058;-76
2021/08/15 07:25:58;;;;;;;15.95;7.43;;;;;;;21.92;71.63;101597.69;4981100;28;20095;-76
2021/08/15 07:28:27;;;;;;;17.20;6.45;;;;;;;22.32;70.74;101592.25;4987096;28;20388;-73
2021/08/15 07:30:55;;;;;;;17.00;7.00;;;;;;;22.28;69.29;101598.00;4983928;28;20113;-77
2021/08/15 07:33:23;;;;;;;18.90;6.80;;;;;;;22.69;69.08;101595.06;4986828;28;20062;-73
2021/08/15 07:35:50;;;;;;;16.38;7.47;;;;;;;22.19;68.82;101597.63;4988598;28;20450;-75
2021/08/15 07:38:21;;;;;;;23.83;7.18;;;;;;;22.72;68.12;101596.72;4983628;28;20464;-74
2021/08/15 07:40:49;;;;;;;16.67;6.50;;;;;;;23.09;66.78;101594.97;4988305;28;20448;-78
2021/08/15 07:43:16;;;;;;;18.02;6.50;;;;;;;23.02;66.38;101588.19;4984263;28;20066;-78
2021/08/15 07:45:46;;;;;;;13.13;6.35;;;;;;;23.21;66.46;101584.16;4985834;28;20141;-78
2021/08/15 07:48:14;;;;;;;18.77;6.32;;;;;;;23.81;64.20;101585.09;4984945;28;20065;-73
2021/08/15 07:50:41;;;;;;;16.27;6.80;;;;;;;23.65;63.94;101585.38;4988478;28;20133;-71
2021/08/15 07:53:20;;;;;;;17.17;7.55;;;;;;;23.62;63.00;101578.34;4984672;28;20780;-73
2021/08/15 07:55:48;;;;;;;16.40;6.63;;;;;;;24.02;61.56;101586.22;4984850;28;20072;-73
2021/08/15 07:58:16;;;;;;;19.17;6.25;;;;;;;24.00;61.13;101588.19;4983503;28;20141;-72
2021/08/15 08:00:46;;;;;;;20.35;6.70;;;;;;;23.85;60.74;101589.34;4987189;28;20042;-72
2021/08/15 08:03:14;;;;;;;20.80;7.45;;;;;;;24.03;62.15;101584.34;4986758;28;20050;-72
2021/08/15 08:05:43;;;;;;;16.88;5.75;;;;;;;23.93;60.71;101589.66;4987263;28;20065;-73
2021/08/15 08:08:10;;;;;;;16.98;6.18;;;;;;;23.78;61.33;101579.88;4984221;28;20139;-72
2021/08/15 08:10:39;;;;;;;16.63;6.80;;;;;;;23.82;59.96;101585.03;4990440;28;20042;-73
2021/08/15 08:13:08;;;;;;;14.73;6.50;;;;;;;24.40;59.45;101579.63;4987362;28;20077;-73
2021/08/15 08:15:36;;;;;;;18.38;6.45;;;;;;;24.36;58.41;101574.53;4985986;28;20067;-72
2021/08/15 08:18:06;;;;;;;15.88;5.53;;;;;;;24.74;57.77;101576.06;4986052;28;20109;-73
2021/08/15 08:20:35;;;;;;;15.70;5.85;;;;;;;24.32;58.55;101575.75;4984389;28;20149;-73
2021/08/15 08:23:03;;;;;;;15.88;5.90;;;;;;;24.54;57.48;101573.09;4986319;28;20066;-73
2021/08/15 08:25:32;;;;;;;17.70;6.70;;;;;;;24.09;58.45;101575.69;4983963;28;20113;-73
2021/08/15 08:27:59;;;;;;;17.75;6.32;;;;;;;24.96;57.56;101569.72;4984614;28;20066;-73
2021/08/15 08:30:28;;;;;;;15.07;6.25;;;;;;;24.55;57.10;101569.38;4984390;28;20265;-71
2021/08/15 08:32:56;;;;;;;11.80;5.53;;;;;;;24.58;56.92;101566.38;4983751;28;20128;-71
2021/08/15 08:35:25;;;;;;;16.20;5.85;;;;;;;24.28;56.88;101566.06;4985822;28;20073;-70
2021/08/15 08:37:53;;;;;;;15.55;6.47;;;;;;;24.75;55.06;101564.19;4983804;28;20069;-71
2021/08/15 08:40:21;;;;;;;19.92;6.88;;;;;;;24.79;54.92;101558.34;4981111;28;20081;-71
2021/08/15 08:42:50;;;;;;;15.10;6.00;;;;;;;24.64;54.60;101565.06;4981440;28;20070;-71
2021/08/15 08:45:21;;;;;;;16.02;6.05;;;;;;;24.82;54.73;101572.72;4982456;28;20153;-76
2021/08/15 08:47:49;;;;;;;15.27;5.55;;;;;;;24.80;54.35;101568.25;4981719;28;20106;-77
2021/08/15 08:50:18;;;;;;;14.38;6.15;;;;;;;25.20;54.32;101563.25;4981921;28;20124;-75
2021/08/15 08:52:47;;;;;;;13.93;6.00;;;;;;;24.49;55.16;101574.44;4981473;28;20077;-75
2021/08/15 08:55:19;;;;;;;12.23;5.57;;;;;;;24.67;52.94;101575.72;4982122;28;20257;-75
2021/08/15 08:57:55;;;;;;;16.30;5.75;;;;;;;24.26;54.67;101571.63;4981031;28;20065;-76
2021/08/15 09:00:23;;;;;;;12.60;5.00;;;;;;;24.97;53.55;101564.16;4980155;28;20074;-75
2021/08/15 09:02:56;;;;;;;12.98;4.63;;;;;;;25.48;51.33;101554.53;4983109;28;20148;-75
2021/08/15 09:05:32;;;;;;;16.02;6.38;;;;;;;24.90;53.85;101559.34;4982014;28;20065;-78
2021/08/15 09:08:06;;;;;;;12.82;5.10;;;;;;;25.31;53.64;101566.00;4982986;28;20157;-77
2021/08/15 09:10:37;;;;;;;13.90;5.60;;;;;;;25.14;52.25;101564.63;4981799;28;20110;-76
2021/08/15 09:13:07;;;;;;;12.88;5.38;;;;;;;25.34;51.39;101561.16;4981265;28;20144;-77
2021/08/15 09:15:36;;;;;;;12.07;4.88;;;;;;;25.31;51.89;101552.34;4981877;28;20136;-72
2021/08/15 09:18:04;;;;;;;13.73;5.18;;;;;;;25.28;52.71;101558.91;4980531;28;20445;-76
2021/08/15 09:20:43;;;;;;;13.57;5.40;;;;;;;25.65;52.08;101557.72;4982434;28;20038;-77
2021/08/15 09:23:20;;;;;;;14.85;5.68;;;;;;;25.08;53.90;101546.03;4981319;28;20433;-72
2021/08/15 09:26:09;;;;;;;15.30;6.10;;;;;;;25.34;54.92;101552.97;4981025;28;20113;-72
2021/08/15 09:28:37;;;;;;;17.70;5.95;;;;;;;25.18;54.45;101555.19;4982772;28;20529;-72
2021/08/15 09:31:19;;;;;;;18.15;6.25;;;;;;;25.20;54.13;101553.22;4980697;28;20070;-71
2021/08/15 09:33:48;;;;;;;16.25;6.43;;;;;;;25.30;54.22;101551.50;4981692;28;21349;-72
2021/08/15 09:36:28;;;;;;;15.57;5.70;;;;;;;25.15;53.31;101539.09;4981671;28;20077;-73
2021/08/15 09:38:59;;;;;;;14.73;6.03;;;;;;;25.54;52.94;101543.09;4979316;28;20057;-71
2021/08/15 09:41:32;;;;;;;16.35;5.85;;;;;;;25.37;53.28;101546.38;4980638;28;20069;-72
2021/08/15 09:44:21;;;;;;;11.90;5.32;;;;;;;24.73;54.61;101539.75;4981322;28;20062;-71
2021/08/15 09:47:10;;;;;;;12.10;5.45;;;;;;;25.43;54.02;101539.53;4981923;28;20073;-71
2021/08/15 09:49:41;;;;;;;13.32;5.70;;;;;;;25.78;53.50;101538.38;4979283;28;20062;-70
2021/08/15 09:52:11;;;;;;;12.73;4.70;;;;;;;25.58;53.29;101549.16;4981821;28;20062;-72
2021/08/15 09:54:41;;;;;;;15.07;5.65;;;;;;;25.80;53.13;101533.69;4983540;28;20508;-70
2021/08/15 09:57:10;;;;;;;13.77;4.45;;;;;;;26.14;52.73;101530.78;4979873;28;20712;-70
2021/08/15 09:59:39;;;;;;;10.10;4.57;;;;;;;25.95;52.59;101536.97;4982456;28;20062;-72
2021/08/15 10:02:07;;;;;;;12.60;4.75;;;;;;;25.72;53.63;101534.31;4979482;28;20224;-76
2021/08/15 10:04:35;;;;;;;11.02;4.53;;;;;;;25.95;53.20;101528.75;4980091;28;20518;-75
2021/08/15 10:07:04;;;;;;;11.43;4.25;;;;;;;25.56;53.68;101525.69;4980229;28;20140;-74
2021/08/15 10:09:32;;;;;;;10.85;3.95;;;;;;;25.56;54.57;101532.03;4980673;28;20078;-74
2021/08/15 10:12:01;;;;;;;11.73;4.00;;;;;;;25.44;54.49;101531.22;4981966;28;20453;-75
2021/08/15 10:14:29;;;;;;;10.27;4.18;;;;;;;26.25;54.30;101519.75;4979538;28;20479;-77
2021/08/15 10:16:59;;;;;;;10.48;4.13;;;;;;;25.99;54.72;101522.03;4978918;28;20062;-75
2021/08/15 10:19:34;;;;;;;12.10;3.70;;;;;;;26.23;54.17;101516.28;4980987;28;20058;-77
2021/08/15 10:22:04;;;;;;;8.02;3.67;;;;;;;25.88;54.74;101520.19;4979113;28;20173;-75
2021/08/15 10:24:44;;;;;;;8.68;3.55;;;;;;;26.53;53.91;101511.81;4979445;28;20067;-78
2021/08/15 10:27:48;;;;;;;8.65;3.25;;;;;;;27.05;53.59;101500.81;4977839;28;20500;-72
2021/08/15 10:30:53;;;;;;;10.07;3.42;;;;;;;26.40;52.71;101512.91;4983348;28;20178;-72
2021/08/15 10:33:29;;;;;;;9.60;4.05;;;;;;;27.23;51.06;101506.47;4979007;28;20089;-71
2021/08/15 10:36:28;;;;;;;8.48;3.88;;;;;;;26.07;53.75;101503.13;4981119;28;20062;-71
2021/08/15 10:38:58;;;;;;;9.57;3.80;;;;;;;26.97;52.35;101496.00;4972479;28;20058;-71
2021/08/15 10:41:48;;;;;;;9.90;4.10;;;;;;;27.21;51.65;101499.25;4978728;28;20078;-71
2021/08/15 10:44:18;;;;;;;9.18;3.72;;;;;;;26.21;52.51;101507.38;4978533;28;20098;-70
2021/08/15 10:47:14;;;;;;;11.35;3.38;;;;;;;26.72;52.49;101495.53;4975734;28;20161;-72
2021/08/15 10:49:57;;;;;;;8.80;3.13;;;;;;;26.26;52.41;101491.41;4979854;28;20358;-70
2021/08/15 10:52:29;;;;;;;;;;;;;;;26.31;51.88;101489.13;4979690;28;20347;-70
2021/08/15 10:55:02;;;;;;;9.50;3.30;;;;;;;26.48;52.33;101482.16;4977473;28;19926;-71
2021/08/15 10:57:48;;;;;;;9.07;3.42;;;;;;;26.85;51.81;101484.31;4980354;28;20085;-71
2021/08/15 11:00:53;;;;;;;9.88;3.65;;;;;;;27.08;50.54;101478.63;4976776;28;20291;-71
2021/08/15 11:03:51;;;;;;;10.52;4.13;;;;;;;27.07;50.17;101482.34;4978854;28;20078;-71
2021/08/15 11:06:47;;;;;;;10.52;3.80;;;;;;;26.47;51.22;101480.41;4980520;28;20062;-70
2021/08/15 11:09:17;;;;;;;8.55;3.30;;;;;;;26.73;51.58;101480.84;4976518;28;20073;-75
2021/08/15 11:12:12;;;;;;;8.25;3.55;;;;;;;26.88;50.31;101491.41;4981826;28;20074;-75
2021/08/15 11:15:03;;;;;;;8.10;2.95;;;;;;;27.15;49.71;101486.09;4978391;28;20493;-75
2021/08/15 11:17:32;;;;;;;52.20;27.33;;;;;;;26.89;49.63;101482.19;4979831;28;20095;-75
2021/08/15 11:20:37;;;;;;;20.88;11.13;;;;;;;26.69;48.70;101475.78;4978213;28;20085;-76
2021/08/15 11:23:08;;;;;;;11.90;5.13;;;;;;;26.07;49.85;101476.63;4980231;28;20054;-77
2021/08/15 11:25:36;;;;;;;8.00;2.63;;;;;;;26.23;50.52;101476.13;4977845;28;20437;-75
2021/08/15 11:28:04;;;;;;;9.25;3.53;;;;;;;26.14;48.92;101474.22;4978852;28;20058;-74
2021/08/15 11:30:32;;;;;;;19.67;8.77;;;;;;;26.24;49.26;101480.59;4979549;28;20066;-71
2021/08/15 11:33:03;;;;;;;11.10;3.40;;;;;;;25.96;50.08;101481.31;4980144;28;20339;-71